createdAt,value
2022-11-22T00:00:01.761Z,19.30
2022-11-22T00:05:05.268Z,17.63
2022-11-22T00:10:09.943Z,20.47
2022-11-22T00:15:14.441Z,21.07
2022-11-22T00:20:17.771Z,20.80
2022-11-22T00:25:20.658Z,20.80
2022-11-22T00:30:24.808Z,20.03
2022-11-22T00:35:27.540Z,20.53
2022-11-22T00:40:30.305Z,20.27
2022-11-22T00:45:34.406Z,20.30
2022-11-22T00:50:37.229Z,17.63
2022-11-22T00:55:40.055Z,17.03
2022-11-22T01:00:44.656Z,17.13
2022-11-22T01:05:48.014Z,15.23
2022-11-22T01:10:56.750Z,15.43
2022-11-22T01:16:02.334Z,18.03
2022-11-22T01:21:05.890Z,17.47
2022-11-22T01:26:09.615Z,16.67
2022-11-22T01:31:13.694Z,18.33
2022-11-22T01:36:16.548Z,18.60
2022-11-22T01:41:19.401Z,16.30
2022-11-22T01:46:33.443Z,20.27
2022-11-22T01:51:39.657Z,18.20
2022-11-22T01:56:47.084Z,19.47
2022-11-22T02:01:51.775Z,21.27
2022-11-22T02:07:00.756Z,18.60
2022-11-22T02:12:05.997Z,18.97
2022-11-22T02:17:10.131Z,19.00
2022-11-22T02:22:24.796Z,21.00
2022-11-22T02:27:29.036Z,22.10
2022-11-22T02:32:31.806Z,19.77
2022-11-22T02:37:34.743Z,23.57
2022-11-22T02:42:38.998Z,22.17
2022-11-22T02:47:41.732Z,20.47
2022-11-22T02:52:44.478Z,21.67
2022-11-22T02:57:48.620Z,20.67
2022-11-22T03:02:51.609Z,19.87
2022-11-22T03:07:54.527Z,22.93
2022-11-22T03:12:59.607Z,24.63
2022-11-22T03:18:04.160Z,25.30
2022-11-22T03:23:06.935Z,20.67
2022-11-22T03:28:11.039Z,23.50
2022-11-22T03:33:13.848Z,20.17
2022-11-22T03:38:16.645Z,20.27
2022-11-22T03:43:21.812Z,19.20
2022-11-22T03:48:24.611Z,21.77
2022-11-22T03:53:27.349Z,18.63
2022-11-22T03:58:31.474Z,16.87
2022-11-22T04:03:34.270Z,16.53
2022-11-22T04:08:37.053Z,18.40
2022-11-22T04:13:58.480Z,17.00
2022-11-22T04:19:01.211Z,13.43
2022-11-22T04:24:23.081Z,15.40
2022-11-22T04:29:27.351Z,15.27
2022-11-22T04:34:30.271Z,14.20
2022-11-22T04:39:33.315Z,16.20
2022-11-22T04:44:43.187Z,16.30
2022-11-22T04:49:45.936Z,14.57
2022-11-22T04:54:48.678Z,14.80
2022-11-22T04:59:52.762Z,17.47
2022-11-22T05:04:55.589Z,16.00
2022-11-22T05:09:58.357Z,16.20
2022-11-22T05:15:02.447Z,12.73
2022-11-22T05:20:05.979Z,14.70
2022-11-22T05:25:11.792Z,14.77
2022-11-22T05:30:16.068Z,15.70
2022-11-22T05:35:18.850Z,15.73
2022-11-22T05:40:21.658Z,17.40
2022-11-22T05:45:26.002Z,16.17
2022-11-22T05:50:28.738Z,16.00
2022-11-22T05:55:32.131Z,17.30
2022-11-22T06:00:36.283Z,18.03
2022-11-22T06:05:39.099Z,18.10
2022-11-22T06:10:41.821Z,18.97
2022-11-22T06:15:45.922Z,17.27
2022-11-22T06:20:55.423Z,18.67
2022-11-22T06:25:59.766Z,17.77
2022-11-22T06:31:05.263Z,15.17
2022-11-22T06:36:10.123Z,16.20
2022-11-22T06:41:17.953Z,15.67
2022-11-22T06:46:24.175Z,14.73
2022-11-22T06:51:29.785Z,18.00
2022-11-22T06:56:34.112Z,16.60
2022-11-22T07:01:38.919Z,18.63
2022-11-22T07:06:44.042Z,19.93
2022-11-22T07:11:46.814Z,18.13
2022-11-22T07:16:51.016Z,16.87
2022-11-22T07:21:55.400Z,15.97
2022-11-22T07:26:58.185Z,18.03
2022-11-22T07:32:02.273Z,17.97
2022-11-22T07:37:09.024Z,17.90
2022-11-22T07:42:13.053Z,16.80
2022-11-22T07:47:22.570Z,17.23
2022-11-22T07:52:25.736Z,17.93
2022-11-22T07:57:28.475Z,18.77
2022-11-22T08:02:38.861Z,17.67
2022-11-22T08:07:47.039Z,18.30
2022-11-22T08:12:52.034Z,19.13
2022-11-22T08:17:56.174Z,17.10
2022-11-22T08:22:58.905Z,16.53
2022-11-22T08:28:04.624Z,17.53
2022-11-22T08:33:08.768Z,16.13
2022-11-22T08:38:11.514Z,16.10
2022-11-22T08:43:16.382Z,15.77
2022-11-22T08:48:22.426Z,17.83
2022-11-22T08:53:26.081Z,17.27
2022-11-22T08:58:30.452Z,15.63
2022-11-22T09:03:34.845Z,16.03
2022-11-22T09:08:40.485Z,15.50
2022-11-22T09:13:47.088Z,15.30
2022-11-22T09:18:52.473Z,14.77
2022-11-22T09:23:55.287Z,18.43
2022-11-22T09:28:58.478Z,16.20
2022-11-22T09:34:02.542Z,15.80
2022-11-22T09:39:05.369Z,14.80
2022-11-22T09:44:16.034Z,15.67
2022-11-22T09:49:30.407Z,16.57
2022-11-22T09:54:40.400Z,14.43
2022-11-22T09:59:46.959Z,14.97
2022-11-22T10:04:56.363Z,11.33
2022-11-22T10:10:05.691Z,12.53
2022-11-22T10:15:18.703Z,13.43
2022-11-22T10:20:24.858Z,12.10
2022-11-22T10:25:39.165Z,11.07
2022-11-22T10:30:49.196Z,11.87
2022-11-22T10:36:08.534Z,13.07
2022-11-22T10:41:27.003Z,12.33
2022-11-22T10:46:39.247Z,12.10
2022-11-22T10:51:52.085Z,13.80
2022-11-22T10:57:00.774Z,12.63
2022-11-22T11:02:17.252Z,14.40
2022-11-22T11:07:24.378Z,13.03
2022-11-22T11:12:35.819Z,13.60
2022-11-22T11:17:39.229Z,12.20
2022-11-22T11:28:09.436Z,14.30
2022-11-22T11:33:34.863Z,13.73
2022-11-22T11:38:51.664Z,17.23
2022-11-22T11:43:56.031Z,13.90
2022-11-22T11:49:11.474Z,17.80
2022-11-22T11:54:19.613Z,13.63
2022-11-22T11:59:26.516Z,17.07
2022-11-22T12:04:33.163Z,16.63
2022-11-22T12:09:45.250Z,17.47
2022-11-22T12:15:10.884Z,16.80
2022-11-22T12:20:19.293Z,18.63
2022-11-22T12:25:32.888Z,17.40
2022-11-22T12:30:38.632Z,18.20
2022-11-22T12:35:44.824Z,18.70
2022-11-22T12:40:53.795Z,17.80
2022-11-22T12:46:01.219Z,19.23
2022-11-22T12:51:08.297Z,18.57
2022-11-22T12:56:26.240Z,18.20
2022-11-22T13:01:45.768Z,19.00
2022-11-22T13:06:58.156Z,22.53
2022-11-22T13:12:06.321Z,20.13
2022-11-22T13:17:09.855Z,20.90
2022-11-22T13:22:20.903Z,20.83
2022-11-22T13:27:30.651Z,18.77
2022-11-22T13:32:35.944Z,19.80
2022-11-22T13:37:41.324Z,18.90
2022-11-22T13:42:45.480Z,21.17
2022-11-22T13:47:48.302Z,21.03
2022-11-22T13:52:54.487Z,16.37
2022-11-22T13:58:52.347Z,21.47
2022-11-22T14:03:55.442Z,19.00
2022-11-22T14:09:27.627Z,22.77
2022-11-22T14:14:40.242Z,22.03
2022-11-22T14:19:57.237Z,19.33
2022-11-22T14:25:17.543Z,18.63
2022-11-22T14:30:23.006Z,21.20
2022-11-22T14:35:32.287Z,23.13
2022-11-22T14:40:40.184Z,26.03
2022-11-22T14:45:50.416Z,26.63
2022-11-22T14:50:58.326Z,27.27
2022-11-22T14:56:07.438Z,29.67
2022-11-22T15:01:39.216Z,28.70
2022-11-22T15:09:11.234Z,31.60
2022-11-22T15:12:38.696Z,27.33
2022-11-22T16:01:19.067Z,31.73
2022-11-22T16:06:27.115Z,31.43
2022-11-22T16:11:32.947Z,31.93
2022-11-22T16:16:35.792Z,32.93
2022-11-22T16:21:39.863Z,44.30
2022-11-22T16:26:50.270Z,35.13
2022-11-22T16:32:00.403Z,30.07
2022-11-22T16:37:27.851Z,31.80
2022-11-22T16:42:39.263Z,28.53
2022-11-22T16:47:42.033Z,30.10
2022-11-22T16:52:46.938Z,29.27
2022-11-22T16:57:49.729Z,27.67
2022-11-22T17:02:52.480Z,29.80
2022-11-22T17:07:58.116Z,27.83
2022-11-22T17:13:00.900Z,32.20
2022-11-22T17:18:03.670Z,29.20
2022-11-22T17:23:13.810Z,33.60
2022-11-22T17:28:21.547Z,33.63
2022-11-22T17:33:32.188Z,30.73
2022-11-22T17:38:48.176Z,31.20
2022-11-22T17:43:51.625Z,29.50
2022-11-22T17:48:56.418Z,32.60
2022-11-22T17:54:03.647Z,32.40
2022-11-22T17:59:06.612Z,31.57
2022-11-22T18:04:09.379Z,32.90
2022-11-22T18:09:13.626Z,30.37
2022-11-22T18:14:16.355Z,30.23
2022-11-22T18:19:19.116Z,29.07
2022-11-22T18:24:23.215Z,28.73
2022-11-22T18:29:42.864Z,32.00
2022-11-22T18:34:46.090Z,30.67
2022-11-22T18:39:50.269Z,30.17
2022-11-22T18:44:53.100Z,32.97
2022-11-22T18:49:55.917Z,32.43
2022-11-22T18:55:00.032Z,27.77
2022-11-22T19:00:02.970Z,31.50
2022-11-22T19:05:06.476Z,29.10
2022-11-22T19:10:11.430Z,34.27
2022-11-22T19:33:14.475Z,34.30
2022-11-22T19:38:18.577Z,33.20
2022-11-22T19:55:47.621Z,33.23
2022-11-22T20:00:52.426Z,39.77
2022-11-22T20:06:01.322Z,37.30
2022-11-22T20:11:06.523Z,36.37
2022-11-22T20:16:15.433Z,38.83
2022-11-22T20:21:22.473Z,39.10
2022-11-22T20:26:27.616Z,40.97
2022-11-22T20:31:34.651Z,36.17
2022-11-22T20:36:37.937Z,36.77
2022-11-22T20:41:41.389Z,37.23
2022-11-22T20:46:45.443Z,39.67
2022-11-22T20:51:48.242Z,37.87
2022-11-22T20:56:51.052Z,31.67
2022-11-22T21:01:57.674Z,33.10
2022-11-22T21:07:02.488Z,30.60
2022-11-22T21:12:06.172Z,31.33
2022-11-22T21:17:35.875Z,32.17
2022-11-22T21:22:34.373Z,29.37
2022-11-22T21:27:39.734Z,28.03
2022-11-22T21:32:45.674Z,26.97
2022-11-22T21:37:48.696Z,29.00
2022-11-22T21:42:52.417Z,30.20
2022-11-22T21:47:58.141Z,32.90
2022-11-22T22:17:26.272Z,28.40
2022-11-22T22:22:28.984Z,26.90
2022-11-22T22:27:32.093Z,29.53
2022-11-22T22:32:36.983Z,26.83
2022-11-22T22:37:42.006Z,25.10
2022-11-22T22:42:44.782Z,26.40
2022-11-22T22:47:48.844Z,24.23
2022-11-22T22:52:51.631Z,26.07
2022-11-22T22:57:54.638Z,25.33
2022-11-22T23:02:58.760Z,26.03
2022-11-22T23:08:05.043Z,29.03
2022-11-22T23:13:07.849Z,27.07
2022-11-22T23:18:11.946Z,24.83
2022-11-22T23:23:14.715Z,29.67
2022-11-22T23:28:17.560Z,29.90
2022-11-22T23:33:21.690Z,27.43
2022-11-22T23:38:24.410Z,27.43
2022-11-22T23:43:27.457Z,32.10
2022-11-22T23:48:31.737Z,31.00
2022-11-22T23:53:34.509Z,30.77
2022-11-22T23:58:37.385Z,33.63
